Time;durP1;ratioP1;P1;durP2;ratioP2;P2;SDS_P1;SDS_P2;PMS_P1;PMS_P2;Temp;Humidity;BMP_temperature;BMP_pressure;BME280_temperature;BME280_humidity;BME280_pressure;Samples;Min_cycle;Max_cycle;Signal;HPM_P1;HPM_P2
2023/01/04 00:00:48;;;;;;;6.13;1.98;;;7.90;99.90;;;;;;5042837;28;20447;-60
2023/01/04 00:03:14;;;;;;;7.43;1.70;;;8.10;99.90;;;;;;5043978;28;20028;-60
2023/01/04 00:05:40;;;;;;;8.02;2.08;;;8.20;99.90;;;;;;5038884;28;20121;-61
2023/01/04 00:08:05;;;;;;;6.28;2.00;;;8.20;99.90;;;;;;5042462;28;20120;-60
2023/01/04 00:10:31;;;;;;;5.10;1.30;;;8.20;99.90;;;;;;5040843;28;20041;-60
2023/01/04 00:12:57;;;;;;;5.15;1.58;;;8.20;99.90;;;;;;5043183;28;20029;-60
2023/01/04 00:15:23;;;;;;;7.78;1.92;;;8.20;99.90;;;;;;5042163;28;20037;-60
2023/01/04 00:17:48;;;;;;;10.55;1.90;;;8.30;99.90;;;;;;5024699;28;20045;-60
2023/01/04 00:20:14;;;;;;;7.25;1.55;;;8.40;99.90;;;;;;5025152;28;20053;-59
2023/01/04 00:22:40;;;;;;;8.73;2.05;;;8.40;99.90;;;;;;5043967;28;20064;-60
2023/01/04 00:25:05;;;;;;;6.75;1.23;;;8.40;99.90;;;;;;5030679;28;20162;-60
2023/01/04 00:27:31;;;;;;;6.00;1.42;;;8.40;99.90;;;;;;5025469;28;20049;-61
2023/01/04 00:29:56;;;;;;;6.43;1.45;;;8.50;99.90;;;;;;5005165;28;20056;-60
2023/01/04 00:32:22;;;;;;;6.72;1.52;;;8.50;99.90;;;;;;5032582;28;20440;-60
2023/01/04 00:34:47;;;;;;;5.80;1.92;;;8.50;99.90;;;;;;5031483;28;20036;-60
2023/01/04 00:37:13;;;;;;;7.35;1.60;;;8.60;99.90;;;;;;5026236;28;20116;-61
2023/01/04 00:39:38;;;;;;;4.90;1.27;;;8.60;99.90;;;;;;5026783;28;20527;-60
2023/01/04 00:42:04;;;;;;;5.57;1.33;;;8.70;99.90;;;;;;5026604;28;20037;-62
2023/01/04 00:44:32;;;;;;;5.93;1.13;;;8.70;99.90;;;;;;5020329;28;20041;-60
2023/01/04 00:46:59;;;;;;;6.53;1.48;;;8.70;99.90;;;;;;5029334;28;20046;-60
2023/01/04 00:49:26;;;;;;;5.63;1.60;;;8.70;99.90;;;;;;5031621;28;20041;-61
2023/01/04 00:51:52;;;;;;;10.95;1.98;;;8.70;99.90;;;;;;5026730;28;20675;-60
2023/01/04 00:54:18;;;;;;;4.15;1.33;;;8.70;99.90;;;;;;5020478;28;20072;-61
2023/01/04 00:56:44;;;;;;;5.30;1.55;;;8.60;99.90;;;;;;5023388;28;20033;-61
2023/01/04 00:59:11;;;;;;;5.28;1.40;;;8.60;99.90;;;;;;5026223;28;20479;-61
2023/01/04 01:01:38;;;;;;;6.90;1.52;;;8.60;99.90;;;;;;5026163;28;20040;-62
2023/01/04 01:04:04;;;;;;;7.75;1.67;;;8.70;99.90;;;;;;5013383;28;20037;-61
2023/01/04 01:06:31;;;;;;;9.45;1.63;;;8.60;99.90;;;;;;5038628;28;20045;-61
2023/01/04 01:08:57;;;;;;;9.95;1.70;;;8.60;99.90;;;;;;5045788;28;20731;-61
2023/01/04 01:11:24;;;;;;;6.47;2.00;;;8.60;99.90;;;;;;5044242;28;20033;-60
2023/01/04 01:13:50;;;;;;;8.60;1.50;;;8.70;99.90;;;;;;5045833;28;20067;-62
2023/01/04 01:16:18;;;;;;;6.78;1.70;;;8.70;99.90;;;;;;5053685;28;20036;-60
2023/01/04 01:18:45;;;;;;;9.23;1.70;;;8.80;99.90;;;;;;5045377;28;20041;-61
2023/01/04 01:21:14;;;;;;;8.93;1.83;;;8.70;99.90;;;;;;5045662;28;20357;-62
2023/01/04 01:23:40;;;;;;;9.73;2.15;;;8.70;99.90;;;;;;5046872;28;20492;-61
2023/01/04 01:26:08;;;;;;;11.65;1.73;;;8.70;99.90;;;;;;5044232;28;20198;-61
2023/01/04 01:28:34;;;;;;;7.88;1.80;;;8.70;99.90;;;;;;5046076;28;20055;-61
2023/01/04 01:31:09;;;;;;;10.75;1.67;;;8.70;99.90;;;;;;5045718;28;20029;-61
2023/01/04 01:33:36;;;;;;;6.18;1.73;;;8.70;99.90;;;;;;5041369;28;20041;-61
2023/01/04 01:36:03;;;;;;;5.07;1.50;;;8.70;99.90;;;;;;5043530;28;20029;-60
2023/01/04 01:38:28;;;;;;;9.05;1.98;;;8.70;99.90;;;;;;5045475;28;20037;-61
2023/01/04 01:40:54;;;;;;;6.95;1.60;;;8.70;99.90;;;;;;5044016;28;20334;-60
2023/01/04 01:43:23;;;;;;;7.45;1.60;;;8.70;99.90;;;;;;5027565;28;20443;-60
2023/01/04 01:45:53;;;;;;;8.77;1.75;;;8.70;99.90;;;;;;5026656;28;20048;-61
2023/01/04 01:48:28;;;;;;;4.53;1.77;;;8.70;99.90;;;;;;5046037;28;20032;-60
2023/01/04 01:51:00;;;;;;;10.35;2.13;;;8.70;99.90;;;;;;5044474;28;20083;-61
2023/01/04 01:53:28;;;;;;;9.02;2.40;;;8.70;99.90;;;;;;5037100;28;20044;-60
2023/01/04 01:55:55;;;;;;;8.05;1.65;;;8.60;99.90;;;;;;5041611;28;20037;-60
2023/01/04 01:58:29;;;;;;;5.35;1.63;;;8.70;99.90;;;;;;5045153;28;20155;-60
2023/01/04 02:00:55;;;;;;;5.57;1.95;;;8.70;99.90;;;;;;5045542;28;20496;-60
2023/01/04 02:03:40;;;;;;;6.85;1.80;;;8.60;99.90;;;;;;5044285;28;20100;-60
2023/01/04 02:06:19;;;;;;;8.60;2.05;;;8.60;99.90;;;;;;5044972;28;20559;-62
2023/01/04 02:08:47;;;;;;;7.53;2.03;;;8.60;99.90;;;;;;5045419;28;20033;-60
2023/01/04 02:11:12;;;;;;;9.57;2.08;;;8.50;99.90;;;;;;5039730;28;20025;-61
2023/01/04 02:17:03;;;;;;;8.68;1.77;;;8.50;99.90;;;;;;5043245;28;20091;-61
2023/01/04 02:19:59;;;;;;;6.05;1.98;;;8.50;99.90;;;;;;5041389;28;20493;-61
2023/01/04 02:22:50;;;;;;;8.43;2.10;;;8.50;99.90;;;;;;5040290;28;20059;-61
2023/01/04 02:25:31;;;;;;;8.35;2.13;;;8.50;99.90;;;;;;5014619;28;20044;-62
2023/01/04 02:28:17;;;;;;;9.15;1.75;;;8.50;99.90;;;;;;5027289;28;20829;-62
2023/01/04 02:30:43;;;;;;;9.45;2.05;;;8.60;99.90;;;;;;5010241;28;20940;-60
2023/01/04 02:33:37;;;;;;;6.13;1.88;;;8.50;99.90;;;;;;5044663;28;20068;-60
2023/01/04 02:36:10;;;;;;;5.18;1.90;;;8.60;99.90;;;;;;5043670;28;20033;-61
2023/01/04 02:38:58;;;;;;;5.80;2.15;;;8.60;99.90;;;;;;5044977;28;20049;-61
2023/01/04 02:41:45;;;;;;;5.72;1.95;;;8.60;99.90;;;;;;5037308;28;20496;-62
2023/01/04 02:50:32;;;;;;;5.30;1.90;;;8.80;99.90;;;;;;5039790;28;20075;-61
2023/01/04 02:53:19;;;;;;;6.32;1.63;;;8.90;99.90;;;;;;5042071;28;20443;-61
2023/01/04 02:56:10;;;;;;;6.35;1.60;;;8.80;99.90;;;;;;5038061;28;20032;-61
2023/01/04 02:59:29;;;;;;;11.30;1.85;;;8.80;99.90;;;;;;5044483;28;20476;-61
2023/01/04 03:08:12;;;;;;;6.32;1.60;;;8.90;99.90;;;;;;5044538;28;20047;-61
2023/01/04 03:10:46;;;;;;;6.30;1.77;;;9.00;99.90;;;;;;5045963;28;20400;-61
2023/01/04 03:13:24;;;;;;;7.68;1.50;;;9.10;99.90;;;;;;5042230;28;20087;-61
2023/01/04 03:16:00;;;;;;;4.45;1.42;;;9.10;99.90;;;;;;5044597;28;20554;-61
2023/01/04 03:18:33;;;;;;;2.83;1.10;;;9.10;99.90;;;;;;5042071;28;20029;-61
2023/01/04 03:21:02;;;;;;;4.43;1.45;;;9.20;99.90;;;;;;5041882;28;20171;-61
2023/01/04 03:35:37;;;;;;;4.33;1.00;;;9.50;99.90;;;;;;5038697;28;20111;-61
2023/01/04 03:50:40;;;;;;;2.10;0.88;;;9.70;99.90;;;;;;5004307;28;20032;-61
2023/01/04 03:53:07;;;;;;;1.90;0.90;;;9.70;99.90;;;;;;5042402;28;20106;-61
2023/01/04 03:55:35;;;;;;;9.10;1.35;;;9.70;99.90;;;;;;5041552;28;20025;-61
2023/01/04 03:58:00;;;;;;;2.72;1.00;;;9.70;99.90;;;;;;5044439;28;20511;-60
2023/01/04 04:00:27;;;;;;;2.20;0.70;;;9.70;99.90;;;;;;5015984;28;20033;-61
2023/01/04 04:02:52;;;;;;;2.97;0.75;;;9.70;99.90;;;;;;5022041;28;20557;-61
2023/01/04 04:08:26;;;;;;;1.13;0.73;;;9.70;99.90;;;;;;5023480;28;20149;-60
2023/01/04 04:10:52;;;;;;;4.10;0.90;;;9.70;99.90;;;;;;5038105;28;20033;-60
2023/01/04 04:13:18;;;;;;;0.88;0.60;;;9.70;99.90;;;;;;5047189;28;20037;-60
2023/01/04 04:15:43;;;;;;;1.58;0.75;;;9.70;99.90;;;;;;5041023;28;20408;-61
2023/01/04 04:18:09;;;;;;;7.85;0.90;;;9.80;99.90;;;;;;5044759;28;20052;-61
2023/01/04 04:20:35;;;;;;;3.92;0.70;;;9.90;99.90;;;;;;5046444;28;20219;-61
2023/01/04 04:23:00;;;;;;;2.15;0.63;;;9.90;99.90;;;;;;5047567;28;20025;-60
2023/01/04 04:25:26;;;;;;;2.22;0.90;;;9.90;99.90;;;;;;5044204;28;20017;-60
2023/01/04 04:27:52;;;;;;;3.75;0.80;;;9.80;99.90;;;;;;5029309;28;20026;-60
2023/01/04 04:30:17;;;;;;;1.85;0.50;;;9.90;99.90;;;;;;5046142;28;20025;-60
2023/01/04 04:32:43;;;;;;;0.98;0.88;;;9.90;99.90;;;;;;5047600;28;20033;-60
2023/01/04 04:35:09;;;;;;;1.20;0.50;;;9.90;99.90;;;;;;5046398;28;20586;-60
2023/01/04 04:37:36;;;;;;;1.42;0.77;;;10.00;99.90;;;;;;5047054;28;20044;-60
2023/01/04 04:40:02;;;;;;;1.63;0.80;;;10.00;99.90;;;;;;5042345;28;20116;-60
2023/01/04 04:42:28;;;;;;;1.08;0.52;;;10.00;99.90;;;;;;5028365;28;20120;-62
2023/01/04 04:44:53;;;;;;;3.20;0.90;;;10.00;99.90;;;;;;5046731;28;20116;-60
2023/01/04 04:47:19;;;;;;;3.85;0.65;;;10.10;99.90;;;;;;5046692;28;20045;-61
2023/01/04 04:49:44;;;;;;;0.95;0.55;;;10.10;99.90;;;;;;5046932;28;20033;-61
2023/01/04 04:52:10;;;;;;;1.25;0.68;;;10.10;99.90;;;;;;5043835;28;20094;-60
2023/01/04 04:54:35;;;;;;;2.35;0.82;;;10.10;99.90;;;;;;5046531;28;20033;-60
2023/01/04 04:57:01;;;;;;;1.08;0.40;;;10.00;99.90;;;;;;5045203;28;20152;-61
2023/01/04 04:59:26;;;;;;;0.43;0.38;;;10.10;99.90;;;;;;5042315;28;20036;-61
2023/01/04 05:01:52;;;;;;;1.73;0.60;;;10.10;99.90;;;;;;5045954;28;20449;-61
2023/01/04 05:04:18;;;;;;;0.50;0.43;;;10.10;99.90;;;;;;5041647;28;20406;-60
2023/01/04 05:06:48;;;;;;;1.45;0.60;;;10.20;99.90;;;;;;5044526;28;20083;-60
2023/01/04 05:09:15;;;;;;;1.38;0.50;;;10.20;99.90;;;;;;5044157;28;20088;-60
2023/01/04 05:14:26;;;;;;;0.60;0.50;;;10.20;99.90;;;;;;5047519;28;20348;-60
2023/01/04 05:16:51;;;;;;;1.20;0.45;;;10.20;99.90;;;;;;5046113;28;20045;-61
2023/01/04 05:19:17;;;;;;;1.40;0.57;;;10.20;99.90;;;;;;5044882;28;20036;-61
2023/01/04 05:21:42;;;;;;;1.90;0.52;;;10.30;99.90;;;;;;5044904;28;20067;-61
2023/01/04 05:24:10;;;;;;;1.60;0.50;;;10.30;99.90;;;;;;5024358;28;20764;-61
2023/01/04 05:26:36;;;;;;;1.13;0.50;;;10.30;99.90;;;;;;5039178;28;20037;-62
2023/01/04 05:29:01;;;;;;;1.83;0.60;;;10.30;99.90;;;;;;5043818;28;20094;-61
2023/01/04 05:31:27;;;;;;;1.75;0.57;;;10.30;99.90;;;;;;5046193;28;20106;-60
2023/01/04 05:33:52;;;;;;;1.55;0.60;;;10.30;99.90;;;;;;5044511;28;20037;-61
2023/01/04 05:36:18;;;;;;;0.52;0.50;;;10.40;99.90;;;;;;5044302;28;20056;-61
2023/01/04 05:38:44;;;;;;;0.88;0.60;;;10.40;99.90;;;;;;5027862;28;20033;-61
2023/01/04 05:43:54;;;;;;;2.35;0.70;;;10.40;99.90;;;;;;5045471;28;20098;-61
2023/01/04 05:46:19;;;;;;;2.05;1.15;;;10.50;99.90;;;;;;5044978;28;20488;-60
2023/01/04 05:48:45;;;;;;;2.00;0.63;;;10.50;99.90;;;;;;5046881;28;20071;-61
2023/01/04 05:51:11;;;;;;;2.08;0.68;;;10.50;99.90;;;;;;5051479;28;20083;-60
2023/01/04 05:53:37;;;;;;;1.40;0.73;;;10.40;99.90;;;;;;5044930;28;20040;-60
2023/01/04 05:56:02;;;;;;;2.75;0.70;;;10.50;99.90;;;;;;5017262;28;20468;-60
2023/01/04 05:58:28;;;;;;;1.52;0.70;;;10.50;99.90;;;;;;5020371;28;20033;-61
2023/01/04 06:00:53;;;;;;;0.80;0.60;;;10.60;99.90;;;;;;5025316;28;20231;-60
2023/01/04 06:03:19;;;;;;;4.10;0.60;;;10.60;99.90;;;;;;5024350;28;20428;-60
2023/01/04 06:05:49;;;;;;;1.02;0.68;;;10.60;99.90;;;;;;5025995;28;20103;-62
2023/01/04 06:08:14;;;;;;;2.00;0.60;;;10.60;99.90;;;;;;5032166;28;20087;-60
2023/01/04 06:10:40;;;;;;;0.47;0.47;;;10.60;99.90;;;;;;5021645;28;20034;-61
2023/01/04 06:13:05;;;;;;;0.95;0.52;;;10.60;99.90;;;;;;5026342;28;20026;-62
2023/01/04 06:15:31;;;;;;;1.05;0.50;;;10.70;99.90;;;;;;5027272;28;20042;-60
2023/01/04 06:17:57;;;;;;;3.95;0.70;;;10.60;99.90;;;;;;5030770;28;20057;-61
2023/01/04 06:20:22;;;;;;;3.53;0.80;;;10.70;99.90;;;;;;5020754;28;20029;-60
2023/01/04 06:22:48;;;;;;;1.30;0.68;;;10.80;99.90;;;;;;5025217;28;20037;-60
2023/01/04 06:25:13;;;;;;;1.40;0.75;;;10.70;99.90;;;;;;5022794;28;20037;-61
2023/01/04 06:27:39;;;;;;;2.17;0.73;;;10.70;99.90;;;;;;5019683;28;20052;-61
2023/01/04 06:30:05;;;;;;;1.23;0.52;;;10.70;99.90;;;;;;5023241;28;20026;-61
2023/01/04 06:32:31;;;;;;;1.40;0.50;;;10.70;99.90;;;;;;5029926;28;20029;-60
2023/01/04 06:34:56;;;;;;;1.50;0.68;;;10.70;99.90;;;;;;5012737;28;20026;-60
2023/01/04 06:37:22;;;;;;;0.88;0.60;;;10.70;99.90;;;;;;5027641;28;20041;-60
2023/01/04 06:39:47;;;;;;;1.20;0.60;;;10.80;99.90;;;;;;5020948;28;20102;-62
2023/01/04 06:44:57;;;;;;;3.45;0.70;;;10.80;99.90;;;;;;5021614;28;20534;-61
2023/01/04 06:47:22;;;;;;;1.05;0.65;;;10.80;99.90;;;;;;5027200;28;20037;-61
2023/01/04 06:49:48;;;;;;;0.88;0.70;;;10.80;99.90;;;;;;5006677;28;20065;-61
2023/01/04 06:52:13;;;;;;;2.35;0.98;;;10.80;99.90;;;;;;5015206;28;20038;-60
2023/01/04 06:54:39;;;;;;;4.35;0.77;;;10.80;99.90;;;;;;5022985;28;20450;-61
2023/01/04 06:57:04;;;;;;;1.90;0.70;;;10.90;99.90;;;;;;5012191;28;20389;-61
2023/01/04 06:59:30;;;;;;;2.30;0.80;;;10.90;99.90;;;;;;5023024;28;20067;-60
2023/01/04 07:01:55;;;;;;;3.17;0.70;;;10.90;99.90;;;;;;5016453;28;20033;-60
2023/01/04 07:04:21;;;;;;;1.60;0.60;;;10.90;99.90;;;;;;5009430;28;20065;-60
2023/01/04 07:06:46;;;;;;;1.45;0.80;;;10.90;99.90;;;;;;5023422;28;20036;-60
2023/01/04 07:09:12;;;;;;;1.63;0.80;;;11.00;99.90;;;;;;5015360;28;20044;-60
2023/01/04 07:11:38;;;;;;;0.63;0.57;;;10.90;99.90;;;;;;5035811;28;20049;-60
2023/01/04 07:14:03;;;;;;;1.15;0.80;;;10.90;99.90;;;;;;5042411;28;20033;-61
2023/01/04 07:16:29;;;;;;;0.70;0.70;;;10.90;99.90;;;;;;5046240;28;20045;-61
2023/01/04 07:18:54;;;;;;;1.75;0.80;;;11.00;99.90;;;;;;5029071;28;20044;-60
2023/01/04 07:21:20;;;;;;;1.48;0.80;;;11.00;99.90;;;;;;5023060;28;20408;-60
2023/01/04 07:23:45;;;;;;;1.67;0.70;;;11.00;99.90;;;;;;5021345;28;20338;-60
2023/01/04 07:26:11;;;;;;;1.50;0.77;;;11.00;99.90;;;;;;5020327;28;20036;-60
2023/01/04 07:31:20;;;;;;;1.80;0.70;;;11.10;99.90;;;;;;5033062;28;20167;-60
2023/01/04 07:33:48;;;;;;;1.05;0.70;;;11.00;99.90;;;;;;5047488;28;20539;-60
2023/01/04 07:36:14;;;;;;;2.58;0.93;;;11.00;99.90;;;;;;5041690;28;20115;-60
2023/01/04 07:38:39;;;;;;;2.88;0.70;;;11.00;99.90;;;;;;5040027;28;20456;-59
2023/01/04 07:41:05;;;;;;;0.80;0.60;;;11.00;99.90;;;;;;5040411;28;20036;-60
2023/01/04 07:43:30;;;;;;;1.55;0.60;;;11.00;99.90;;;;;;5050298;28;20029;-60
2023/01/04 07:45:56;;;;;;;0.93;0.82;;;11.10;99.90;;;;;;5049054;28;20037;-60
2023/01/04 07:48:21;;;;;;;1.45;0.70;;;11.10;99.90;;;;;;5050141;28;20094;-59
2023/01/04 07:50:48;;;;;;;3.47;0.80;;;11.10;99.90;;;;;;5049612;28;20044;-61
2023/01/04 07:53:14;;;;;;;2.10;0.80;;;11.10;99.90;;;;;;5023635;28;20496;-61
2023/01/04 07:55:39;;;;;;;1.27;0.93;;;11.20;99.90;;;;;;5045481;28;20078;-60
2023/01/04 07:58:05;;;;;;;1.15;0.70;;;11.20;99.90;;;;;;5049686;28;20089;-61
2023/01/04 08:00:31;;;;;;;1.85;0.70;;;11.10;99.90;;;;;;5049305;28;20455;-60
2023/01/04 08:02:56;;;;;;;1.90;0.80;;;11.10;99.90;;;;;;5045371;28;20051;-61
2023/01/04 08:05:23;;;;;;;2.03;0.80;;;11.20;99.90;;;;;;5030208;28;20037;-61
2023/01/04 08:07:49;;;;;;;1.33;0.85;;;11.20;99.90;;;;;;5048888;28;20563;-60
2023/01/04 08:10:15;;;;;;;2.05;0.60;;;11.10;99.90;;;;;;5042457;28;20033;-61
2023/01/04 08:12:40;;;;;;;2.97;0.60;;;11.20;99.90;;;;;;5048146;28;20045;-60
2023/01/04 08:15:06;;;;;;;0.60;0.60;;;11.10;99.90;;;;;;5044270;28;20044;-61
2023/01/04 08:17:32;;;;;;;1.50;0.63;;;11.20;99.90;;;;;;5050373;28;20045;-60
2023/01/04 08:20:00;;;;;;;2.42;0.70;;;11.20;99.90;;;;;;5046035;28;20040;-61
2023/01/04 08:22:25;;;;;;;3.13;0.80;;;11.20;99.90;;;;;;5046782;28;20037;-61
2023/01/04 08:24:51;;;;;;;1.75;0.60;;;11.20;99.90;;;;;;5047930;28;20405;-61
2023/01/04 08:27:16;;;;;;;1.33;0.80;;;11.20;99.90;;;;;;5048225;28;20127;-60
2023/01/04 08:29:42;;;;;;;1.17;0.70;;;11.20;99.90;;;;;;5047509;28;20232;-61
2023/01/04 08:32:09;;;;;;;2.47;0.90;;;11.20;99.90;;;;;;5046546;28;20535;-62
2023/01/04 08:34:34;;;;;;;2.85;0.80;;;11.30;99.90;;;;;;5049791;28;20033;-60
2023/01/04 08:37:00;;;;;;;2.60;0.77;;;11.40;99.90;;;;;;5048038;28;20717;-61
2023/01/04 08:39:28;;;;;;;1.50;0.82;;;11.40;99.90;;;;;;5049160;28;20052;-60
2023/01/04 08:41:54;;;;;;;2.63;0.82;;;11.40;99.90;;;;;;5047091;28;20045;-60
2023/01/04 08:44:21;;;;;;;2.03;0.88;;;11.40;99.90;;;;;;5026524;28;20041;-60
2023/01/04 08:46:48;;;;;;;3.03;0.82;;;11.30;99.90;;;;;;5049294;28;20636;-60
2023/01/04 08:49:14;;;;;;;2.85;0.93;;;11.40;99.90;;;;;;5048979;28;20558;-61
2023/01/04 08:51:40;;;;;;;1.70;0.80;;;11.40;99.90;;;;;;5049215;28;20045;-61
2023/01/04 08:54:05;;;;;;;1.92;0.70;;;11.30;99.90;;;;;;5042788;28;20057;-60
2023/01/04 08:56:31;;;;;;;3.03;1.00;;;11.40;99.90;;;;;;5036211;28;20035;-60
2023/01/04 08:58:56;;;;;;;3.70;1.20;;;11.40;99.90;;;;;;5046370;28;20025;-60
2023/01/04 09:01:22;;;;;;;1.73;0.90;;;11.40;99.90;;;;;;5045576;28;20037;-60
2023/01/04 09:03:47;;;;;;;1.52;1.00;;;11.40;99.90;;;;;;5045364;28;20090;-61
2023/01/04 09:06:14;;;;;;;1.25;0.88;;;11.40;99.90;;;;;;5043857;28;20040;-60
2023/01/04 09:08:42;;;;;;;3.47;1.00;;;11.50;99.90;;;;;;5049572;28;20032;-60
2023/01/04 09:11:18;;;;;;;3.10;0.98;;;11.40;99.90;;;;;;5014252;28;20060;-60
2023/01/04 09:13:44;;;;;;;2.95;1.10;;;11.40;99.90;;;;;;5046767;28;20041;-60
2023/01/04 09:16:14;;;;;;;2.55;0.90;;;11.40;99.90;;;;;;5043937;28;20082;-60
2023/01/04 09:18:39;;;;;;;2.95;0.90;;;11.40;99.90;;;;;;5028006;28;20037;-61
2023/01/04 09:21:06;;;;;;;3.00;1.13;;;11.50;99.90;;;;;;5028177;28;20517;-60
2023/01/04 09:23:33;;;;;;;2.92;0.98;;;11.60;99.90;;;;;;5032779;28;20124;-60
2023/01/04 09:26:03;;;;;;;2.17;0.82;;;11.50;99.90;;;;;;5041513;28;20147;-60
2023/01/04 09:28:28;;;;;;;3.35;0.95;;;11.50;99.90;;;;;;5045193;28;20033;-61
2023/01/04 09:30:54;;;;;;;2.17;0.90;;;11.50;99.90;;;;;;5044528;28;20033;-61
2023/01/04 09:33:19;;;;;;;1.35;0.88;;;11.50;99.90;;;;;;5045190;28;20029;-60
2023/01/04 09:35:45;;;;;;;2.25;1.17;;;11.60;99.90;;;;;;5044973;28;20021;-60
2023/01/04 09:38:10;;;;;;;3.80;0.93;;;11.60;99.90;;;;;;5043781;28;20140;-60
2023/01/04 09:40:45;;;;;;;1.42;0.75;;;11.60;99.90;;;;;;5044430;28;20040;-61
2023/01/04 09:43:17;;;;;;;4.50;1.33;;;11.50;99.90;;;;;;5044602;28;20643;-60
2023/01/04 09:45:44;;;;;;;1.30;0.73;;;11.60;99.90;;;;;;5045428;28;20072;-61
2023/01/04 09:48:14;;;;;;;2.35;0.95;;;11.70;99.90;;;;;;5033274;28;20091;-60
2023/01/04 09:50:50;;;;;;;2.25;0.90;;;11.70;99.90;;;;;;5007070;28;20442;-60
2023/01/04 09:53:43;;;;;;;2.53;0.93;;;11.70;99.90;;;;;;5021040;28;20035;-60
2023/01/04 09:56:33;;;;;;;1.20;0.70;;;11.80;99.90;;;;;;5017558;28;20056;-60
2023/01/04 09:59:01;;;;;;;2.95;0.90;;;11.80;99.90;;;;;;5029130;28;20117;-60
2023/01/04 10:01:38;;;;;;;2.08;0.80;;;11.80;99.90;;;;;;5043454;28;20599;-60
2023/01/04 10:04:06;;;;;;;4.20;0.98;;;11.70;99.90;;;;;;5044182;28;20178;-60
2023/01/04 10:06:33;;;;;;;1.73;0.90;;;11.80;99.90;;;;;;5026362;28;20091;-61
2023/01/04 10:09:05;;;;;;;2.13;0.98;;;11.80;99.90;;;;;;5042526;28;20068;-60
2023/01/04 10:11:56;;;;;;;2.85;0.85;;;11.80;99.90;;;;;;5043117;28;20029;-60
2023/01/04 10:14:43;;;;;;;2.13;1.08;;;11.90;99.90;;;;;;5042018;28;20515;-60
2023/01/04 10:17:31;;;;;;;1.35;0.93;;;11.90;99.90;;;;;;5043290;28;20036;-60
2023/01/04 10:20:18;;;;;;;2.58;0.80;;;11.80;99.90;;;;;;5040705;28;20488;-61
2023/01/04 10:23:17;;;;;;;4.63;0.90;;;11.80;99.90;;;;;;5038579;28;20040;-60
2023/01/04 10:25:56;;;;;;;2.42;0.88;;;11.80;99.90;;;;;;5042099;28;20041;-60
2023/01/04 10:28:47;;;;;;;1.85;1.13;;;11.90;99.90;;;;;;5037972;28;20041;-60
2023/01/04 10:31:48;;;;;;;3.50;0.80;;;11.90;99.90;;;;;;5041153;28;20429;-61
2023/01/04 10:34:31;;;;;;;4.78;1.10;;;11.80;99.90;;;;;;5020468;28;20037;-60
2023/01/04 10:37:03;;;;;;;3.60;1.10;;;11.90;99.90;;;;;;5040852;28;20528;-61
2023/01/04 10:39:31;;;;;;;2.53;0.90;;;11.90;99.90;;;;;;5041650;28;20100;-59
2023/01/04 10:42:32;;;;;;;1.23;0.90;;;12.00;99.90;;;;;;5042560;28;20048;-59
2023/01/04 10:45:18;;;;;;;3.08;0.90;;;12.00;99.90;;;;;;5042100;28;20538;-59
2023/01/04 10:48:04;;;;;;;4.35;1.30;;;12.00;99.90;;;;;;5040917;28;20178;-61
2023/01/04 10:50:38;;;;;;;2.50;1.10;;;12.00;99.90;;;;;;5043028;28;20037;-61
2023/01/04 10:53:23;;;;;;;3.95;1.17;;;12.10;99.90;;;;;;5040824;28;20067;-60
2023/01/04 10:55:54;;;;;;;3.63;1.10;;;12.10;99.90;;;;;;5038717;28;20408;-60
2023/01/04 10:58:28;;;;;;;3.22;1.20;;;12.10;99.90;;;;;;5042798;28;20033;-59
2023/01/04 11:00:59;;;;;;;3.03;1.25;;;12.10;99.90;;;;;;5010891;28;20068;-58
2023/01/04 11:03:43;;;;;;;2.83;1.13;;;12.10;99.90;;;;;;5020019;28;20049;-60
2023/01/04 11:06:17;;;;;;;5.18;1.13;;;12.10;99.90;;;;;;5002100;28;20496;-60
2023/01/04 11:08:52;;;;;;;5.15;1.20;;;12.10;99.90;;;;;;5048890;28;20490;-59
2023/01/04 11:11:21;;;;;;;3.67;1.20;;;12.10;99.90;;;;;;5039573;28;20072;-60
2023/01/04 11:13:48;;;;;;;2.97;1.30;;;12.10;99.90;;;;;;5040044;28;20137;-60
2023/01/04 11:16:13;;;;;;;3.05;1.40;;;12.00;99.90;;;;;;5039831;28;20078;-60
2023/01/04 11:18:41;;;;;;;3.65;1.38;;;12.10;99.90;;;;;;5044598;28;20030;-59
2023/01/04 11:21:11;;;;;;;4.32;1.10;;;12.10;99.90;;;;;;5042838;28;20032;-60
2023/01/04 11:23:37;;;;;;;3.53;1.10;;;12.20;99.90;;;;;;5046144;28;20037;-59
2023/01/04 11:26:26;;;;;;;4.00;1.40;;;12.20;99.90;;;;;;5040889;28;20104;-59
2023/01/04 11:28:55;;;;;;;3.33;1.45;;;12.20;99.90;;;;;;5042841;28;20132;-59
2023/01/04 11:31:33;;;;;;;2.85;1.10;;;12.30;99.90;;;;;;5036038;28;20033;-60
2023/01/04 11:34:00;;;;;;;2.90;1.20;;;12.30;99.90;;;;;;5042662;28;20029;-59
2023/01/04 11:36:41;;;;;;;3.03;1.20;;;12.20;99.90;;;;;;5022488;28;20033;-59
2023/01/04 11:39:18;;;;;;;2.58;0.98;;;12.20;99.90;;;;;;5041300;28;20124;-60
2023/01/04 11:41:58;;;;;;;3.35;1.38;;;12.20;99.90;;;;;;5040488;28;20607;-60
2023/01/04 11:44:24;;;;;;;3.08;1.10;;;12.10;99.90;;;;;;5027768;28;20869;-59
2023/01/04 11:47:17;;;;;;;2.22;0.98;;;12.20;99.90;;;;;;5034933;28;20037;-59
2023/01/04 11:49:42;;;;;;;1.55;1.00;;;12.20;99.90;;;;;;5042056;28;20036;-60
2023/01/04 11:52:36;;;;;;;3.08;1.15;;;12.30;99.90;;;;;;5042600;28;20037;-60
2023/01/04 11:55:26;;;;;;;2.15;0.90;;;12.20;99.90;;;;;;5031058;28;20149;-60
2023/01/04 11:58:14;;;;;;;3.22;1.10;;;12.30;99.90;;;;;;5043147;28;20120;-61
2023/01/04 12:00:50;;;;;;;2.67;1.10;;;12.30;99.90;;;;;;5040557;28;20368;-60
2023/01/04 12:03:24;;;;;;;2.13;1.15;;;12.30;99.90;;;;;;5036427;28;20484;-60
2023/01/04 12:05:49;;;;;;;3.17;1.17;;;12.20;99.90;;;;;;5041897;28;20316;-60
2023/01/04 12:08:27;;;;;;;2.25;1.10;;;12.20;99.90;;;;;;5043078;28;20524;-61
2023/01/04 12:10:52;;;;;;;2.75;1.30;;;12.20;99.90;;;;;;5040625;28;20037;-61
2023/01/04 12:13:18;;;;;;;2.72;1.30;;;12.20;99.90;;;;;;5042923;28;20507;-61
2023/01/04 12:16:09;;;;;;;1.50;0.98;;;12.20;99.90;;;;;;5041989;28;20045;-60
2023/01/04 12:18:39;;;;;;;3.55;1.00;;;12.10;99.90;;;;;;5040549;28;20045;-61
2023/01/04 12:21:04;;;;;;;2.38;1.13;;;12.10;99.90;;;;;;5043153;28;20040;-60
2023/01/04 12:23:32;;;;;;;3.28;1.00;;;12.10;99.90;;;;;;5040987;28;20393;-60
2023/01/04 12:25:59;;;;;;;1.77;1.00;;;12.10;99.90;;;;;;5038758;28;20218;-60
2023/01/04 12:28:38;;;;;;;3.00;1.13;;;12.10;99.90;;;;;;5044535;28;20064;-61
2023/01/04 12:31:19;;;;;;;2.60;1.10;;;12.20;99.90;;;;;;5036458;28;20120;-60
2023/01/04 12:33:46;;;;;;;2.58;1.10;;;12.20;99.90;;;;;;5044073;28;20026;-60
2023/01/04 12:36:14;;;;;;;2.80;1.10;;;12.20;99.90;;;;;;5045561;28;20036;-59
2023/01/04 12:38:56;;;;;;;4.25;1.10;;;12.10;99.90;;;;;;5043479;28;20033;-60
2023/01/04 12:41:34;;;;;;;3.20;1.10;;;12.10;99.90;;;;;;5040607;28;20696;-60
2023/01/04 12:44:01;;;;;;;2.95;0.80;;;12.20;99.90;;;;;;5045603;28;20098;-61
2023/01/04 12:49:28;;;;;;;2.42;0.88;;;12.10;99.90;;;;;;5029188;28;20047;-60
2023/01/04 12:52:09;;;;;;;1.42;0.90;;;12.20;99.90;;;;;;5020617;28;20033;-61
2023/01/04 12:54:50;;;;;;;1.50;1.08;;;12.20;99.90;;;;;;5036533;28;20151;-61
2023/01/04 12:57:15;;;;;;;2.30;1.00;;;12.10;99.90;;;;;;5040186;28;20060;-60
2023/01/04 13:00:13;;;;;;;1.17;0.77;;;12.20;99.90;;;;;;5044351;28;20115;-60
2023/01/04 13:03:14;;;;;;;1.40;0.77;;;12.20;99.90;;;;;;5053374;28;20119;-60
2023/01/04 13:06:01;;;;;;;1.13;0.80;;;12.20;99.90;;;;;;5039658;28;20130;-60
2023/01/04 13:08:31;;;;;;;1.33;0.80;;;12.20;99.90;;;;;;5044406;28;20484;-60
2023/01/04 13:10:59;;;;;;;3.15;0.80;;;12.30;99.90;;;;;;5049792;28;20025;-60
2023/01/04 13:13:30;;;;;;;0.88;0.75;;;12.20;99.90;;;;;;5045466;28;20025;-60
2023/01/04 13:16:24;;;;;;;1.27;0.70;;;12.20;99.90;;;;;;5045672;28;20048;-59
2023/01/04 13:18:51;;;;;;;1.45;0.80;;;12.20;99.90;;;;;;5045029;28;20045;-61
2023/01/04 13:21:26;;;;;;;2.65;0.80;;;12.30;99.90;;;;;;5038824;28;20056;-59
2023/01/04 13:23:54;;;;;;;1.30;0.70;;;12.30;99.90;;;;;;5045805;28;20077;-61
2023/01/04 13:26:33;;;;;;;0.82;0.82;;;12.30;99.90;;;;;;5043757;28;20530;-61
2023/01/04 13:29:15;;;;;;;1.02;0.80;;;12.40;99.90;;;;;;5043718;28;20021;-59
2023/01/04 13:31:50;;;;;;;2.00;0.70;;;12.40;99.90;;;;;;5045619;28;20061;-60
2023/01/04 13:34:21;;;;;;;1.70;0.57;;;12.40;99.90;;;;;;5044272;28;20029;-60
2023/01/04 13:36:54;;;;;;;0.90;0.77;;;12.40;99.90;;;;;;5044104;28;20559;-61
2023/01/04 13:39:20;;;;;;;1.17;0.43;;;12.40;99.90;;;;;;5037070;28;20098;-59
2023/01/04 13:41:45;;;;;;;1.15;0.82;;;12.40;99.90;;;;;;5043339;28;20034;-59
2023/01/04 13:44:44;;;;;;;1.55;0.70;;;12.40;99.90;;;;;;5047582;28;20029;-60
2023/01/04 13:47:09;;;;;;;2.53;0.90;;;12.40;99.90;;;;;;5047101;28;20095;-60
2023/01/04 13:49:39;;;;;;;1.88;1.00;;;12.40;99.90;;;;;;5027104;28;20465;-60
2023/01/04 13:52:26;;;;;;;0.70;0.70;;;12.40;99.90;;;;;;5024972;28;20053;-59
2023/01/04 13:55:17;;;;;;;1.52;0.80;;;12.40;99.90;;;;;;5021073;28;20034;-60
2023/01/04 13:58:00;;;;;;;1.15;0.90;;;12.40;99.90;;;;;;5038897;28;20049;-60
2023/01/04 14:00:51;;;;;;;1.38;0.70;;;12.40;99.90;;;;;;5040339;28;20045;-60
2023/01/04 14:03:46;;;;;;;2.38;1.00;;;12.40;99.90;;;;;;5038068;28;20034;-60
2023/01/04 14:06:29;;;;;;;2.63;0.85;;;12.50;99.90;;;;;;5040376;28;20064;-60